sensor_id;sensor_type;location;lat;lon;timestamp;P1;durP1;ratioP1;P2;durP2;ratioP2
3549;SDS011;45572;48.804;8.330;2022-12-17T00:02:05;21.23;;;10.65;;
3549;SDS011;45572;48.804;8.330;2022-12-17T00:04:48;21.10;;;11.25;;
3549;SDS011;45572;48.804;8.330;2022-12-17T00:07:30;21.10;;;9.75;;
3549;SDS011;45572;48.804;8.330;2022-12-17T00:10:12;24.02;;;11.48;;
3549;SDS011;45572;48.804;8.330;2022-12-17T00:12:55;21.48;;;10.98;;
3549;SDS011;45572;48.804;8.330;2022-12-17T00:15:37;28.02;;;11.90;;
3549;SDS011;45572;48.804;8.330;2022-12-17T00:18:21;17.27;;;11.98;;
3549;SDS011;45572;48.804;8.330;2022-12-17T00:21:03;18.67;;;11.13;;
3549;SDS011;45572;48.804;8.330;2022-12-17T00:23:46;22.17;;;11.52;;
3549;SDS011;45572;48.804;8.330;2022-12-17T00:26:28;17.05;;;10.50;;
3549;SDS011;45572;48.804;8.330;2022-12-17T00:29:11;15.25;;;8.07;;
3549;SDS011;45572;48.804;8.330;2022-12-17T00:31:54;13.80;;;9.10;;
3549;SDS011;45572;48.804;8.330;2022-12-17T00:34:36;23.73;;;11.05;;
3549;SDS011;45572;48.804;8.330;2022-12-17T00:37:18;15.32;;;9.05;;
3549;SDS011;45572;48.804;8.330;2022-12-17T00:40:02;18.50;;;8.93;;
3549;SDS011;45572;48.804;8.330;2022-12-17T00:42:44;20.10;;;8.90;;
3549;SDS011;45572;48.804;8.330;2022-12-17T00:45:28;20.75;;;9.30;;
3549;SDS011;45572;48.804;8.330;2022-12-17T00:48:10;14.38;;;8.02;;
3549;SDS011;45572;48.804;8.330;2022-12-17T00:50:51;13.38;;;8.63;;
3549;SDS011;45572;48.804;8.330;2022-12-17T00:53:36;16.15;;;9.25;;
3549;SDS011;45572;48.804;8.330;2022-12-17T00:56:18;15.30;;;8.95;;
3549;SDS011;45572;48.804;8.330;2022-12-17T00:58:59;15.10;;;8.25;;
3549;SDS011;45572;48.804;8.330;2022-12-17T01:01:42;13.95;;;9.02;;
3549;SDS011;45572;48.804;8.330;2022-12-17T01:04:24;21.63;;;9.85;;
3549;SDS011;45572;48.804;8.330;2022-12-17T01:07:06;15.50;;;8.15;;
3549;SDS011;45572;48.804;8.330;2022-12-17T01:09:48;14.27;;;8.52;;
3549;SDS011;45572;48.804;8.330;2022-12-17T01:12:29;15.63;;;8.88;;
3549;SDS011;45572;48.804;8.330;2022-12-17T01:15:11;13.45;;;7.97;;
3549;SDS011;45572;48.804;8.330;2022-12-17T01:17:54;12.95;;;7.40;;
3549;SDS011;45572;48.804;8.330;2022-12-17T01:20:36;18.60;;;10.27;;
3549;SDS011;45572;48.804;8.330;2022-12-17T01:23:18;15.98;;;9.32;;
3549;SDS011;45572;48.804;8.330;2022-12-17T01:26:00;18.05;;;9.77;;
3549;SDS011;45572;48.804;8.330;2022-12-17T01:28:45;19.98;;;9.95;;
3549;SDS011;45572;48.804;8.330;2022-12-17T01:31:27;21.38;;;9.60;;
3549;SDS011;45572;48.804;8.330;2022-12-17T01:34:10;13.80;;;8.52;;
3549;SDS011;45572;48.804;8.330;2022-12-17T01:36:52;18.77;;;9.27;;
3549;SDS011;45572;48.804;8.330;2022-12-17T01:39:34;18.20;;;9.80;;
3549;SDS011;45572;48.804;8.330;2022-12-17T01:42:16;16.95;;;9.82;;
3549;SDS011;45572;48.804;8.330;2022-12-17T01:44:57;18.30;;;10.38;;
3549;SDS011;45572;48.804;8.330;2022-12-17T01:47:41;20.70;;;9.70;;
3549;SDS011;45572;48.804;8.330;2022-12-17T01:50:29;19.92;;;10.95;;
3549;SDS011;45572;48.804;8.330;2022-12-17T01:53:13;16.08;;;9.25;;
3549;SDS011;45572;48.804;8.330;2022-12-17T01:55:59;19.95;;;10.63;;
3549;SDS011;45572;48.804;8.330;2022-12-17T01:58:40;13.98;;;8.80;;
3549;SDS011;45572;48.804;8.330;2022-12-17T02:01:23;23.30;;;9.27;;
3549;SDS011;45572;48.804;8.330;2022-12-17T02:04:05;14.57;;;8.25;;
3549;SDS011;45572;48.804;8.330;2022-12-17T02:06:50;28.80;;;9.90;;
3549;SDS011;45572;48.804;8.330;2022-12-17T02:09:39;20.63;;;9.18;;
3549;SDS011;45572;48.804;8.330;2022-12-17T02:12:29;17.95;;;7.35;;
3549;SDS011;45572;48.804;8.330;2022-12-17T02:15:15;14.90;;;8.45;;
3549;SDS011;45572;48.804;8.330;2022-12-17T02:18:01;14.52;;;6.82;;
3549;SDS011;45572;48.804;8.330;2022-12-17T02:20:52;18.20;;;8.95;;
3549;SDS011;45572;48.804;8.330;2022-12-17T02:23:41;16.02;;;9.18;;
3549;SDS011;45572;48.804;8.330;2022-12-17T02:26:35;14.32;;;8.15;;
3549;SDS011;45572;48.804;8.330;2022-12-17T02:29:20;14.65;;;8.25;;
3549;SDS011;45572;48.804;8.330;2022-12-17T02:32:04;12.05;;;7.75;;
3549;SDS011;45572;48.804;8.330;2022-12-17T02:34:47;14.07;;;7.82;;
3549;SDS011;45572;48.804;8.330;2022-12-17T02:37:31;20.45;;;8.23;;
3549;SDS011;45572;48.804;8.330;2022-12-17T02:40:13;19.67;;;8.30;;
3549;SDS011;45572;48.804;8.330;2022-12-17T02:42:56;15.35;;;8.80;;
3549;SDS011;45572;48.804;8.330;2022-12-17T02:45:38;20.42;;;8.27;;
3549;SDS011;45572;48.804;8.330;2022-12-17T02:48:20;15.05;;;9.05;;
3549;SDS011;45572;48.804;8.330;2022-12-17T02:51:03;17.17;;;8.85;;
3549;SDS011;45572;48.804;8.330;2022-12-17T02:53:49;18.73;;;9.95;;
3549;SDS011;45572;48.804;8.330;2022-12-17T02:56:33;11.20;;;8.50;;
3549;SDS011;45572;48.804;8.330;2022-12-17T02:59:17;19.63;;;9.25;;
3549;SDS011;45572;48.804;8.330;2022-12-17T03:02:06;13.65;;;6.80;;
3549;SDS011;45572;48.804;8.330;2022-12-17T03:04:48;16.52;;;8.73;;
3549;SDS011;45572;48.804;8.330;2022-12-17T03:07:50;18.08;;;9.50;;
3549;SDS011;45572;48.804;8.330;2022-12-17T03:10:32;10.68;;;7.03;;
3549;SDS011;45572;48.804;8.330;2022-12-17T03:13:20;14.90;;;9.38;;
3549;SDS011;45572;48.804;8.330;2022-12-17T03:16:07;19.40;;;9.55;;
3549;SDS011;45572;48.804;8.330;2022-12-17T03:18:50;15.50;;;8.90;;
3549;SDS011;45572;48.804;8.330;2022-12-17T03:21:31;15.88;;;8.30;;
3549;SDS011;45572;48.804;8.330;2022-12-17T03:24:13;18.15;;;9.45;;
3549;SDS011;45572;48.804;8.330;2022-12-17T03:26:55;19.30;;;8.60;;
3549;SDS011;45572;48.804;8.330;2022-12-17T03:29:37;13.68;;;7.97;;
3549;SDS011;45572;48.804;8.330;2022-12-17T03:32:20;12.80;;;7.68;;
3549;SDS011;45572;48.804;8.330;2022-12-17T03:35:02;21.15;;;8.40;;
3549;SDS011;45572;48.804;8.330;2022-12-17T03:37:44;11.98;;;8.68;;
3549;SDS011;45572;48.804;8.330;2022-12-17T03:40:25;18.00;;;8.50;;
3549;SDS011;45572;48.804;8.330;2022-12-17T03:43:07;19.75;;;8.75;;
3549;SDS011;45572;48.804;8.330;2022-12-17T03:45:51;14.40;;;7.65;;
3549;SDS011;45572;48.804;8.330;2022-12-17T03:48:34;19.63;;;8.30;;
3549;SDS011;45572;48.804;8.330;2022-12-17T03:51:16;10.65;;;6.85;;
3549;SDS011;45572;48.804;8.330;2022-12-17T03:53:58;15.50;;;7.47;;
3549;SDS011;45572;48.804;8.330;2022-12-17T03:56:39;14.48;;;8.40;;
3549;SDS011;45572;48.804;8.330;2022-12-17T03:59:21;29.85;;;11.10;;
3549;SDS011;45572;48.804;8.330;2022-12-17T04:02:03;15.52;;;8.25;;
3549;SDS011;45572;48.804;8.330;2022-12-17T04:04:46;17.00;;;8.55;;
3549;SDS011;45572;48.804;8.330;2022-12-17T04:07:28;20.30;;;9.25;;
3549;SDS011;45572;48.804;8.330;2022-12-17T04:10:10;20.75;;;8.57;;
3549;SDS011;45572;48.804;8.330;2022-12-17T04:12:52;15.57;;;8.05;;
3549;SDS011;45572;48.804;8.330;2022-12-17T04:15:33;11.50;;;8.20;;
3549;SDS011;45572;48.804;8.330;2022-12-17T04:18:15;16.58;;;8.90;;
3549;SDS011;45572;48.804;8.330;2022-12-17T04:20:59;14.50;;;8.40;;
3549;SDS011;45572;48.804;8.330;2022-12-17T04:23:40;19.55;;;9.35;;
3549;SDS011;45572;48.804;8.330;2022-12-17T04:26:22;13.50;;;7.35;;
3549;SDS011;45572;48.804;8.330;2022-12-17T04:29:04;13.43;;;7.78;;
3549;SDS011;45572;48.804;8.330;2022-12-17T04:31:45;23.25;;;8.52;;
3549;SDS011;45572;48.804;8.330;2022-12-17T04:34:27;15.73;;;9.20;;
3549;SDS011;45572;48.804;8.330;2022-12-17T04:37:14;15.15;;;8.30;;
3549;SDS011;45572;48.804;8.330;2022-12-17T04:39:55;21.48;;;9.32;;
3549;SDS011;45572;48.804;8.330;2022-12-17T04:42:37;21.52;;;9.63;;
3549;SDS011;45572;48.804;8.330;2022-12-17T04:45:19;19.00;;;8.90;;
3549;SDS011;45572;48.804;8.330;2022-12-17T04:48:01;17.13;;;10.48;;
3549;SDS011;45572;48.804;8.330;2022-12-17T04:50:43;14.95;;;8.85;;
3549;SDS011;45572;48.804;8.330;2022-12-17T04:53:26;17.15;;;9.25;;
3549;SDS011;45572;48.804;8.330;2022-12-17T04:56:07;20.25;;;9.25;;
3549;SDS011;45572;48.804;8.330;2022-12-17T04:58:49;22.30;;;10.00;;
3549;SDS011;45572;48.804;8.330;2022-12-17T05:01:31;15.45;;;7.53;;
3549;SDS011;45572;48.804;8.330;2022-12-17T05:04:13;15.57;;;7.70;;
3549;SDS011;45572;48.804;8.330;2022-12-17T05:06:54;12.98;;;8.68;;
3549;SDS011;45572;48.804;8.330;2022-12-17T05:09:37;13.45;;;7.75;;
3549;SDS011;45572;48.804;8.330;2022-12-17T05:12:19;12.18;;;8.40;;
3549;SDS011;45572;48.804;8.330;2022-12-17T05:15:01;15.25;;;7.90;;
3549;SDS011;45572;48.804;8.330;2022-12-17T05:17:43;20.25;;;9.38;;
3549;SDS011;45572;48.804;8.330;2022-12-17T05:20:25;18.25;;;8.00;;
3549;SDS011;45572;48.804;8.330;2022-12-17T05:23:07;13.52;;;8.00;;
3549;SDS011;45572;48.804;8.330;2022-12-17T05:25:51;12.70;;;7.35;;
3549;SDS011;45572;48.804;8.330;2022-12-17T05:28:41;11.98;;;7.53;;
3549;SDS011;45572;48.804;8.330;2022-12-17T05:31:23;17.83;;;7.95;;
3549;SDS011;45572;48.804;8.330;2022-12-17T05:34:05;9.15;;;6.53;;
3549;SDS011;45572;48.804;8.330;2022-12-17T05:36:46;16.55;;;7.00;;
3549;SDS011;45572;48.804;8.330;2022-12-17T05:39:28;12.80;;;6.13;;
3549;SDS011;45572;48.804;8.330;2022-12-17T05:42:11;15.20;;;6.75;;
3549;SDS011;45572;48.804;8.330;2022-12-17T05:44:53;17.65;;;7.53;;
3549;SDS011;45572;48.804;8.330;2022-12-17T05:47:34;15.27;;;6.60;;
3549;SDS011;45572;48.804;8.330;2022-12-17T05:50:16;15.48;;;7.57;;
3549;SDS011;45572;48.804;8.330;2022-12-17T05:53:00;13.25;;;7.60;;
3549;SDS011;45572;48.804;8.330;2022-12-17T05:55:42;11.88;;;6.75;;
3549;SDS011;45572;48.804;8.330;2022-12-17T05:58:29;8.77;;;6.07;;
3549;SDS011;45572;48.804;8.330;2022-12-17T06:01:11;10.98;;;7.32;;
3549;SDS011;45572;48.804;8.330;2022-12-17T06:03:53;16.85;;;7.75;;
3549;SDS011;45572;48.804;8.330;2022-12-17T06:06:35;11.55;;;7.40;;
3549;SDS011;45572;48.804;8.330;2022-12-17T06:09:17;21.05;;;8.57;;
3549;SDS011;45572;48.804;8.330;2022-12-17T06:11:59;12.80;;;7.10;;
3549;SDS011;45572;48.804;8.330;2022-12-17T06:14:42;15.48;;;7.85;;
3549;SDS011;45572;48.804;8.330;2022-12-17T06:17:24;8.95;;;6.53;;
3549;SDS011;45572;48.804;8.330;2022-12-17T06:20:06;18.33;;;8.20;;
3549;SDS011;45572;48.804;8.330;2022-12-17T06:22:57;13.43;;;8.10;;
3549;SDS011;45572;48.804;8.330;2022-12-17T06:25:39;12.55;;;7.78;;
3549;SDS011;45572;48.804;8.330;2022-12-17T06:28:21;20.42;;;8.50;;
3549;SDS011;45572;48.804;8.330;2022-12-17T06:31:04;16.50;;;7.63;;
3549;SDS011;45572;48.804;8.330;2022-12-17T06:33:47;15.40;;;8.15;;
3549;SDS011;45572;48.804;8.330;2022-12-17T06:36:34;8.77;;;7.05;;
3549;SDS011;45572;48.804;8.330;2022-12-17T06:39:15;15.43;;;8.38;;
3549;SDS011;45572;48.804;8.330;2022-12-17T06:42:01;16.42;;;8.10;;
3549;SDS011;45572;48.804;8.330;2022-12-17T06:44:42;11.38;;;6.97;;
3549;SDS011;45572;48.804;8.330;2022-12-17T06:47:28;13.02;;;7.90;;
3549;SDS011;45572;48.804;8.330;2022-12-17T06:50:10;12.93;;;8.30;;
3549;SDS011;45572;48.804;8.330;2022-12-17T06:52:59;13.77;;;8.00;;
3549;SDS011;45572;48.804;8.330;2022-12-17T06:55:41;14.30;;;8.70;;
3549;SDS011;45572;48.804;8.330;2022-12-17T06:58:23;15.55;;;7.50;;
3549;SDS011;45572;48.804;8.330;2022-12-17T07:01:05;14.23;;;7.25;;
3549;SDS011;45572;48.804;8.330;2022-12-17T07:03:48;11.60;;;7.45;;
3549;SDS011;45572;48.804;8.330;2022-12-17T07:06:30;12.48;;;8.25;;
3549;SDS011;45572;48.804;8.330;2022-12-17T07:09:12;19.08;;;9.40;;
3549;SDS011;45572;48.804;8.330;2022-12-17T07:11:54;11.82;;;8.23;;
3549;SDS011;45572;48.804;8.330;2022-12-17T07:14:36;11.65;;;7.28;;
3549;SDS011;45572;48.804;8.330;2022-12-17T07:17:17;13.90;;;7.90;;
3549;SDS011;45572;48.804;8.330;2022-12-17T07:20:00;12.95;;;7.82;;
3549;SDS011;45572;48.804;8.330;2022-12-17T07:22:42;16.83;;;8.13;;
3549;SDS011;45572;48.804;8.330;2022-12-17T07:25:24;8.52;;;6.18;;
3549;SDS011;45572;48.804;8.330;2022-12-17T07:28:11;15.35;;;7.75;;
3549;SDS011;45572;48.804;8.330;2022-12-17T07:30:54;17.35;;;7.85;;
3549;SDS011;45572;48.804;8.330;2022-12-17T07:33:36;10.65;;;6.55;;
3549;SDS011;45572;48.804;8.330;2022-12-17T07:36:19;12.13;;;7.00;;
3549;SDS011;45572;48.804;8.330;2022-12-17T07:39:01;12.65;;;8.07;;
3549;SDS011;45572;48.804;8.330;2022-12-17T07:41:43;13.57;;;6.22;;
3549;SDS011;45572;48.804;8.330;2022-12-17T07:44:25;10.25;;;6.22;;
3549;SDS011;45572;48.804;8.330;2022-12-17T07:47:07;10.95;;;6.43;;
3549;SDS011;45572;48.804;8.330;2022-12-17T07:49:48;13.23;;;8.38;;
3549;SDS011;45572;48.804;8.330;2022-12-17T07:52:31;24.65;;;7.18;;
3549;SDS011;45572;48.804;8.330;2022-12-17T07:55:13;44.70;;;17.88;;
3549;SDS011;45572;48.804;8.330;2022-12-17T07:57:56;30.08;;;12.82;;
3549;SDS011;45572;48.804;8.330;2022-12-17T08:00:39;37.40;;;15.93;;
3549;SDS011;45572;48.804;8.330;2022-12-17T08:03:21;23.77;;;11.05;;
3549;SDS011;45572;48.804;8.330;2022-12-17T08:06:04;27.80;;;9.05;;
3549;SDS011;45572;48.804;8.330;2022-12-17T08:08:47;27.48;;;11.45;;
3549;SDS011;45572;48.804;8.330;2022-12-17T08:11:29;28.83;;;10.65;;
3549;SDS011;45572;48.804;8.330;2022-12-17T08:14:11;32.92;;;12.55;;
3549;SDS011;45572;48.804;8.330;2022-12-17T08:16:52;25.27;;;13.25;;
3549;SDS011;45572;48.804;8.330;2022-12-17T08:19:35;44.88;;;15.05;;
3549;SDS011;45572;48.804;8.330;2022-12-17T08:22:17;44.35;;;16.88;;
3549;SDS011;45572;48.804;8.330;2022-12-17T08:25:00;31.65;;;14.45;;
3549;SDS011;45572;48.804;8.330;2022-12-17T08:27:42;32.30;;;16.10;;
3549;SDS011;45572;48.804;8.330;2022-12-17T08:30:24;36.42;;;16.58;;
3549;SDS011;45572;48.804;8.330;2022-12-17T08:33:07;25.42;;;13.65;;
3549;SDS011;45572;48.804;8.330;2022-12-17T08:35:50;39.45;;;17.20;;
3549;SDS011;45572;48.804;8.330;2022-12-17T08:38:32;38.63;;;16.63;;
3549;SDS011;45572;48.804;8.330;2022-12-17T08:41:15;29.40;;;15.07;;
3549;SDS011;45572;48.804;8.330;2022-12-17T08:43:57;35.60;;;18.17;;
3549;SDS011;45572;48.804;8.330;2022-12-17T08:46:39;44.50;;;15.55;;
3549;SDS011;45572;48.804;8.330;2022-12-17T08:49:20;31.23;;;15.85;;
3549;SDS011;45572;48.804;8.330;2022-12-17T08:52:02;32.60;;;16.92;;
3549;SDS011;45572;48.804;8.330;2022-12-17T08:54:44;35.10;;;18.70;;
3549;SDS011;45572;48.804;8.330;2022-12-17T08:57:27;44.90;;;18.33;;
3549;SDS011;45572;48.804;8.330;2022-12-17T09:00:09;30.92;;;15.80;;
3549;SDS011;45572;48.804;8.330;2022-12-17T09:02:55;51.30;;;20.20;;
3549;SDS011;45572;48.804;8.330;2022-12-17T09:05:37;44.20;;;16.20;;
3549;SDS011;45572;48.804;8.330;2022-12-17T09:08:19;38.15;;;17.05;;
3549;SDS011;45572;48.804;8.330;2022-12-17T09:11:01;37.08;;;14.43;;
3549;SDS011;45572;48.804;8.330;2022-12-17T09:13:44;43.78;;;18.17;;
3549;SDS011;45572;48.804;8.330;2022-12-17T09:16:26;39.83;;;16.98;;
3549;SDS011;45572;48.804;8.330;2022-12-17T09:19:08;40.33;;;17.25;;
3549;SDS011;45572;48.804;8.330;2022-12-17T09:21:50;39.50;;;18.02;;
3549;SDS011;45572;48.804;8.330;2022-12-17T09:24:32;40.95;;;17.88;;
3549;SDS011;45572;48.804;8.330;2022-12-17T09:27:14;32.97;;;16.67;;
3549;SDS011;45572;48.804;8.330;2022-12-17T09:29:57;44.53;;;17.20;;
3549;SDS011;45572;48.804;8.330;2022-12-17T09:32:39;43.67;;;17.17;;
3549;SDS011;45572;48.804;8.330;2022-12-17T09:35:20;37.60;;;17.73;;
3549;SDS011;45572;48.804;8.330;2022-12-17T09:38:02;33.47;;;17.25;;
3549;SDS011;45572;48.804;8.330;2022-12-17T09:40:45;32.42;;;15.05;;
3549;SDS011;45572;48.804;8.330;2022-12-17T09:43:29;37.25;;;14.75;;
3549;SDS011;45572;48.804;8.330;2022-12-17T09:46:20;33.70;;;15.10;;
3549;SDS011;45572;48.804;8.330;2022-12-17T09:49:11;43.10;;;16.67;;
3549;SDS011;45572;48.804;8.330;2022-12-17T09:51:57;39.70;;;15.65;;
3549;SDS011;45572;48.804;8.330;2022-12-17T09:54:40;35.00;;;17.55;;
3549;SDS011;45572;48.804;8.330;2022-12-17T09:57:27;48.38;;;19.13;;
3549;SDS011;45572;48.804;8.330;2022-12-17T10:00:13;44.72;;;17.00;;
3549;SDS011;45572;48.804;8.330;2022-12-17T10:02:58;40.88;;;16.60;;
3549;SDS011;45572;48.804;8.330;2022-12-17T10:05:40;35.35;;;17.55;;
3549;SDS011;45572;48.804;8.330;2022-12-17T10:08:25;34.58;;;17.23;;
3549;SDS011;45572;48.804;8.330;2022-12-17T10:11:13;40.45;;;16.88;;
3549;SDS011;45572;48.804;8.330;2022-12-17T10:14:08;41.35;;;17.35;;
3549;SDS011;45572;48.804;8.330;2022-12-17T10:16:56;35.53;;;18.17;;
3549;SDS011;45572;48.804;8.330;2022-12-17T10:19:39;30.15;;;16.17;;
3549;SDS011;45572;48.804;8.330;2022-12-17T10:22:22;36.58;;;15.57;;
3549;SDS011;45572;48.804;8.330;2022-12-17T10:25:05;34.10;;;18.00;;
3549;SDS011;45572;48.804;8.330;2022-12-17T10:27:47;31.17;;;15.80;;
3549;SDS011;45572;48.804;8.330;2022-12-17T10:30:29;27.35;;;14.60;;
3549;SDS011;45572;48.804;8.330;2022-12-17T10:33:14;26.77;;;14.23;;
3549;SDS011;45572;48.804;8.330;2022-12-17T10:36:00;27.70;;;14.60;;
3549;SDS011;45572;48.804;8.330;2022-12-17T10:38:43;26.10;;;13.25;;
3549;SDS011;45572;48.804;8.330;2022-12-17T10:41:33;31.10;;;12.40;;
3549;SDS011;45572;48.804;8.330;2022-12-17T10:44:20;31.17;;;14.35;;
3549;SDS011;45572;48.804;8.330;2022-12-17T10:47:03;30.10;;;13.63;;
3549;SDS011;45572;48.804;8.330;2022-12-17T10:49:55;22.50;;;13.00;;
3549;SDS011;45572;48.804;8.330;2022-12-17T10:52:38;30.55;;;14.40;;
3549;SDS011;45572;48.804;8.330;2022-12-17T10:55:24;36.53;;;15.85;;
3549;SDS011;45572;48.804;8.330;2022-12-17T10:58:09;30.33;;;14.25;;
3549;SDS011;45572;48.804;8.330;2022-12-17T11:00:57;28.35;;;13.27;;
3549;SDS011;45572;48.804;8.330;2022-12-17T11:03:46;26.83;;;15.10;;
3549;SDS011;45572;48.804;8.330;2022-12-17T11:06:32;24.92;;;13.50;;
3549;SDS011;45572;48.804;8.330;2022-12-17T11:09:21;34.92;;;14.60;;
3549;SDS011;45572;48.804;8.330;2022-12-17T11:12:10;31.08;;;14.82;;
3549;SDS011;45572;48.804;8.330;2022-12-17T11:14:58;33.10;;;15.45;;
3549;SDS011;45572;48.804;8.330;2022-12-17T11:17:44;28.20;;;15.55;;
3549;SDS011;45572;48.804;8.330;2022-12-17T11:20:33;29.77;;;14.93;;
3549;SDS011;45572;48.804;8.330;2022-12-17T11:23:24;31.45;;;13.90;;
3549;SDS011;45572;48.804;8.330;2022-12-17T11:26:09;33.90;;;15.02;;
3549;SDS011;45572;48.804;8.330;2022-12-17T11:28:54;28.20;;;15.23;;
3549;SDS011;45572;48.804;8.330;2022-12-17T11:31:41;34.45;;;15.73;;
3549;SDS011;45572;48.804;8.330;2022-12-17T11:34:33;33.90;;;15.13;;
3549;SDS011;45572;48.804;8.330;2022-12-17T11:37:29;28.58;;;15.23;;
3549;SDS011;45572;48.804;8.330;2022-12-17T11:40:19;33.15;;;16.83;;
3549;SDS011;45572;48.804;8.330;2022-12-17T11:43:11;30.85;;;15.95;;
3549;SDS011;45572;48.804;8.330;2022-12-17T11:46:02;38.97;;;14.90;;
3549;SDS011;45572;48.804;8.330;2022-12-17T11:48:54;43.05;;;16.77;;
3549;SDS011;45572;48.804;8.330;2022-12-17T11:51:44;30.70;;;14.90;;
3549;SDS011;45572;48.804;8.330;2022-12-17T11:54:34;32.38;;;15.32;;
3549;SDS011;45572;48.804;8.330;2022-12-17T11:57:31;34.00;;;19.45;;
3549;SDS011;45572;48.804;8.330;2022-12-17T12:00:20;29.73;;;15.75;;
3549;SDS011;45572;48.804;8.330;2022-12-17T12:03:06;25.77;;;13.93;;
3549;SDS011;45572;48.804;8.330;2022-12-17T12:06:02;28.38;;;14.07;;
3549;SDS011;45572;48.804;8.330;2022-12-17T12:08:55;31.83;;;14.65;;
3549;SDS011;45572;48.804;8.330;2022-12-17T12:11:43;30.67;;;16.63;;
3549;SDS011;45572;48.804;8.330;2022-12-17T12:14:33;33.83;;;15.23;;
3549;SDS011;45572;48.804;8.330;2022-12-17T12:17:28;29.80;;;14.50;;
3549;SDS011;45572;48.804;8.330;2022-12-17T12:20:23;27.60;;;13.70;;
3549;SDS011;45572;48.804;8.330;2022-12-17T12:23:15;23.25;;;13.50;;
3549;SDS011;45572;48.804;8.330;2022-12-17T12:26:07;28.70;;;13.38;;
3549;SDS011;45572;48.804;8.330;2022-12-17T12:28:56;32.72;;;16.25;;
3549;SDS011;45572;48.804;8.330;2022-12-17T12:31:46;30.58;;;15.98;;
3549;SDS011;45572;48.804;8.330;2022-12-17T12:34:39;34.17;;;15.48;;
3549;SDS011;45572;48.804;8.330;2022-12-17T12:37:23;26.98;;;15.30;;
3549;SDS011;45572;48.804;8.330;2022-12-17T12:40:07;30.52;;;15.70;;
3549;SDS011;45572;48.804;8.330;2022-12-17T12:42:57;35.45;;;15.27;;
3549;SDS011;45572;48.804;8.330;2022-12-17T12:45:44;33.00;;;16.58;;
3549;SDS011;45572;48.804;8.330;2022-12-17T12:48:35;32.67;;;16.10;;
3549;SDS011;45572;48.804;8.330;2022-12-17T12:51:23;35.70;;;19.77;;
3549;SDS011;45572;48.804;8.330;2022-12-17T13:00:19;39.53;;;19.80;;
3549;SDS011;45572;48.804;8.330;2022-12-17T13:03:06;56.55;;;21.25;;
3549;SDS011;45572;48.804;8.330;2022-12-17T13:05:55;39.00;;;20.92;;
3549;SDS011;45572;48.804;8.330;2022-12-17T13:08:24;46.60;;;20.67;;
3549;SDS011;45572;48.804;8.330;2022-12-17T13:10:52;44.55;;;22.08;;
3549;SDS011;45572;48.804;8.330;2022-12-17T13:13:24;51.05;;;22.08;;
3549;SDS011;45572;48.804;8.330;2022-12-17T13:16:00;53.72;;;24.33;;
3549;SDS011;45572;48.804;8.330;2022-12-17T13:18:43;49.47;;;23.42;;
3549;SDS011;45572;48.804;8.330;2022-12-17T13:21:22;52.75;;;23.90;;
3549;SDS011;45572;48.804;8.330;2022-12-17T13:23:53;44.58;;;21.35;;
3549;SDS011;45572;48.804;8.330;2022-12-17T13:26:23;45.22;;;21.27;;
3549;SDS011;45572;48.804;8.330;2022-12-17T13:28:59;47.83;;;21.63;;
3549;SDS011;45572;48.804;8.330;2022-12-17T13:31:30;52.50;;;21.48;;
3549;SDS011;45572;48.804;8.330;2022-12-17T13:34:08;44.75;;;21.92;;
3549;SDS011;45572;48.804;8.330;2022-12-17T13:36:43;44.47;;;22.10;;
3549;SDS011;45572;48.804;8.330;2022-12-17T13:39:22;47.15;;;21.83;;
3549;SDS011;45572;48.804;8.330;2022-12-17T13:41:57;45.53;;;22.88;;
3549;SDS011;45572;48.804;8.330;2022-12-17T13:44:26;44.72;;;21.92;;
3549;SDS011;45572;48.804;8.330;2022-12-17T13:46:59;48.40;;;24.80;;
3549;SDS011;45572;48.804;8.330;2022-12-17T13:49:27;58.25;;;24.35;;
3549;SDS011;45572;48.804;8.330;2022-12-17T13:51:59;59.72;;;26.25;;
3549;SDS011;45572;48.804;8.330;2022-12-17T13:54:37;52.05;;;23.88;;
3549;SDS011;45572;48.804;8.330;2022-12-17T13:57:06;53.92;;;24.63;;
3549;SDS011;45572;48.804;8.330;2022-12-17T13:59:35;47.08;;;21.80;;
3549;SDS011;45572;48.804;8.330;2022-12-17T14:02:04;44.22;;;23.15;;
3549;SDS011;45572;48.804;8.330;2022-12-17T14:04:32;47.67;;;23.58;;
3549;SDS011;45572;48.804;8.330;2022-12-17T14:07:02;49.17;;;24.02;;
3549;SDS011;45572;48.804;8.330;2022-12-17T14:09:32;51.15;;;23.67;;
3549;SDS011;45572;48.804;8.330;2022-12-17T14:12:05;53.15;;;24.25;;
3549;SDS011;45572;48.804;8.330;2022-12-17T14:14:48;54.35;;;23.70;;
3549;SDS011;45572;48.804;8.330;2022-12-17T14:17:21;61.03;;;26.38;;
3549;SDS011;45572;48.804;8.330;2022-12-17T14:19:53;54.20;;;25.15;;
3549;SDS011;45572;48.804;8.330;2022-12-17T14:22:28;51.28;;;25.30;;
3549;SDS011;45572;48.804;8.330;2022-12-17T14:25:00;45.50;;;24.10;;
3549;SDS011;45572;48.804;8.330;2022-12-17T14:27:31;49.70;;;22.20;;
3549;SDS011;45572;48.804;8.330;2022-12-17T14:30:00;48.33;;;22.17;;
3549;SDS011;45572;48.804;8.330;2022-12-17T14:32:31;49.65;;;24.42;;
3549;SDS011;45572;48.804;8.330;2022-12-17T14:35:00;43.38;;;20.65;;
3549;SDS011;45572;48.804;8.330;2022-12-17T14:37:29;56.58;;;24.17;;
3549;SDS011;45572;48.804;8.330;2022-12-17T14:39:59;51.80;;;26.13;;
3549;SDS011;45572;48.804;8.330;2022-12-17T14:42:29;48.30;;;24.10;;
3549;SDS011;45572;48.804;8.330;2022-12-17T14:45:02;52.90;;;24.23;;
3549;SDS011;45572;48.804;8.330;2022-12-17T14:47:33;60.22;;;24.13;;
3549;SDS011;45572;48.804;8.330;2022-12-17T14:50:04;51.90;;;24.60;;
3549;SDS011;45572;48.804;8.330;2022-12-17T14:52:51;47.53;;;23.23;;
3549;SDS011;45572;48.804;8.330;2022-12-17T14:55:20;56.03;;;26.30;;
3549;SDS011;45572;48.804;8.330;2022-12-17T14:57:51;46.78;;;23.75;;
3549;SDS011;45572;48.804;8.330;2022-12-17T15:00:19;55.15;;;24.85;;
3549;SDS011;45572;48.804;8.330;2022-12-17T15:02:49;51.55;;;24.23;;
3549;SDS011;45572;48.804;8.330;2022-12-17T15:05:20;50.13;;;25.15;;
3549;SDS011;45572;48.804;8.330;2022-12-17T15:07:48;53.63;;;23.90;;
3549;SDS011;45572;48.804;8.330;2022-12-17T15:10:18;51.25;;;25.98;;
3549;SDS011;45572;48.804;8.330;2022-12-17T15:12:47;61.10;;;25.30;;
3549;SDS011;45572;48.804;8.330;2022-12-17T15:15:18;60.38;;;26.73;;
3549;SDS011;45572;48.804;8.330;2022-12-17T15:17:47;66.13;;;27.98;;
3549;SDS011;45572;48.804;8.330;2022-12-17T15:20:15;52.47;;;25.77;;
3549;SDS011;45572;48.804;8.330;2022-12-17T15:22:45;54.97;;;26.02;;
3549;SDS011;45572;48.804;8.330;2022-12-17T15:25:14;64.40;;;25.52;;
3549;SDS011;45572;48.804;8.330;2022-12-17T15:27:44;49.88;;;25.75;;
3549;SDS011;45572;48.804;8.330;2022-12-17T15:30:13;47.15;;;23.83;;
3549;SDS011;45572;48.804;8.330;2022-12-17T15:32:44;47.50;;;26.05;;
3549;SDS011;45572;48.804;8.330;2022-12-17T15:35:12;55.42;;;27.30;;
3549;SDS011;45572;48.804;8.330;2022-12-17T15:37:41;48.92;;;23.35;;
3549;SDS011;45572;48.804;8.330;2022-12-17T15:40:09;49.30;;;23.67;;
3549;SDS011;45572;48.804;8.330;2022-12-17T15:42:37;49.30;;;24.63;;
3549;SDS011;45572;48.804;8.330;2022-12-17T15:45:19;60.90;;;25.35;;
3549;SDS011;45572;48.804;8.330;2022-12-17T15:47:51;60.58;;;22.92;;
3549;SDS011;45572;48.804;8.330;2022-12-17T15:50:19;52.42;;;24.30;;
3549;SDS011;45572;48.804;8.330;2022-12-17T15:52:47;54.03;;;25.27;;
3549;SDS011;45572;48.804;8.330;2022-12-17T15:55:15;53.50;;;24.05;;
3549;SDS011;45572;48.804;8.330;2022-12-17T15:57:42;51.67;;;23.48;;
3549;SDS011;45572;48.804;8.330;2022-12-17T16:00:10;53.30;;;24.08;;
3549;SDS011;45572;48.804;8.330;2022-12-17T16:02:38;57.03;;;24.50;;
3549;SDS011;45572;48.804;8.330;2022-12-17T16:05:08;48.40;;;23.98;;
3549;SDS011;45572;48.804;8.330;2022-12-17T16:07:36;48.10;;;23.75;;
3549;SDS011;45572;48.804;8.330;2022-12-17T16:10:04;48.53;;;22.40;;
3549;SDS011;45572;48.804;8.330;2022-12-17T16:12:32;50.08;;;25.65;;